Time;durP1;ratioP1;P1;durP2;ratioP2;P2;SDS_P1;SDS_P2;PMS_P1;PMS_P2;Temp;Humidity;BMP_temperature;BMP_pressure;BME280_temperature;BME280_humidity;BME280_pressure;Samples;Min_cycle;Max_cycle;Signal;HPM_P1;HPM_P2
2023/10/07 00:00:52;;;;;;;7.18;4.93;;;15.90;99.90;;;;;;5035890;28;20132;-87
2023/10/07 00:03:20;;;;;;;9.65;4.93;;;15.90;99.90;;;;;;5052939;28;20067;-86
2023/10/07 00:05:47;;;;;;;10.00;5.18;;;15.90;99.90;;;;;;5051964;28;20410;-87
2023/10/07 00:08:16;;;;;;;9.15;4.78;;;15.90;99.90;;;;;;5034220;28;20033;-85
2023/10/07 00:10:48;;;;;;;8.23;4.88;;;15.90;99.90;;;;;;5051533;28;20469;-87
2023/10/07 00:13:14;;;;;;;8.98;4.93;;;15.90;99.90;;;;;;5033634;28;20036;-87
2023/10/07 00:15:43;;;;;;;11.02;5.15;;;15.90;99.90;;;;;;5031347;28;20393;-87
2023/10/07 00:18:13;;;;;;;9.05;5.03;;;15.90;99.90;;;;;;5034265;28;20051;-87
2023/10/07 00:20:56;;;;;;;7.90;5.15;;;15.90;99.90;;;;;;5031424;28;20102;-87
2023/10/07 00:23:26;;;;;;;6.70;4.70;;;15.90;99.90;;;;;;5029215;28;20033;-87
2023/10/07 00:25:53;;;;;;;11.02;5.10;;;15.90;99.90;;;;;;5036148;28;20492;-88
2023/10/07 00:28:32;;;;;;;6.72;4.82;;;15.90;99.90;;;;;;5029450;28;20029;-88
2023/10/07 00:31:05;;;;;;;7.45;4.43;;;15.90;99.90;;;;;;5031634;28;20029;-87
2023/10/07 00:33:48;;;;;;;6.55;4.50;;;16.00;99.90;;;;;;5047937;28;20023;-86
2023/10/07 00:36:22;;;;;;;7.88;4.55;;;15.90;99.90;;;;;;5025636;28;20072;-86
2023/10/07 00:38:47;;;;;;;6.43;3.72;;;16.00;99.90;;;;;;5041340;28;20020;-87
2023/10/07 00:41:18;;;;;;;5.97;4.05;;;16.00;99.90;;;;;;5025718;28;20025;-87
2023/10/07 00:43:44;;;;;;;7.25;4.78;;;16.00;99.90;;;;;;5023980;28;20033;-86
2023/10/07 00:48:56;;;;;;;6.93;4.93;;;16.00;99.90;;;;;;5045454;28;20020;-87
2023/10/07 00:51:35;;;;;;;7.50;4.75;;;16.00;99.90;;;;;;5029912;28;20617;-87
2023/10/07 00:54:18;;;;;;;8.88;4.95;;;15.90;99.90;;;;;;5034243;28;20115;-87
2023/10/07 00:57:06;;;;;;;6.00;4.18;;;16.00;99.90;;;;;;5049093;28;20046;-86
2023/10/07 00:59:35;;;;;;;5.65;4.45;;;16.00;99.90;;;;;;5025340;28;20041;-87
2023/10/07 01:02:05;;;;;;;6.30;4.40;;;16.00;99.90;;;;;;5032920;28;20020;-86
2023/10/07 01:04:40;;;;;;;4.80;3.97;;;16.00;99.90;;;;;;5046594;28;20019;-88
2023/10/07 01:07:13;;;;;;;5.50;4.43;;;16.00;99.90;;;;;;5028477;28;20052;-88
2023/10/07 01:09:39;;;;;;;5.70;4.55;;;16.00;99.90;;;;;;5032725;28;20028;-86
2023/10/07 01:12:08;;;;;;;5.70;3.83;;;16.00;99.90;;;;;;5050551;28;20017;-86
2023/10/07 01:14:35;;;;;;;8.15;5.00;;;16.00;99.90;;;;;;5047265;28;20068;-86
2023/10/07 01:17:03;;;;;;;5.63;3.72;;;16.00;99.90;;;;;;5048643;28;20018;-86
2023/10/07 01:19:43;;;;;;;8.70;4.65;;;16.00;99.90;;;;;;5025843;28;20461;-86
2023/10/07 01:22:18;;;;;;;6.57;4.40;;;16.00;99.90;;;;;;5033405;28;20032;-85
2023/10/07 01:24:46;;;;;;;3.83;3.40;;;16.00;99.90;;;;;;5030623;28;20013;-87
2023/10/07 01:29:59;;;;;;;5.05;4.10;;;16.00;99.90;;;;;;5048191;28;20160;-87
2023/10/07 01:32:32;;;;;;;4.72;3.75;;;16.00;99.90;;;;;;5026149;28;20032;-87
2023/10/07 01:35:00;;;;;;;6.88;4.60;;;16.00;99.90;;;;;;5032299;28;20109;-87
2023/10/07 01:37:31;;;;;;;4.22;3.83;;;16.00;99.90;;;;;;5035707;28;20473;-86
2023/10/07 01:39:57;;;;;;;6.40;4.25;;;16.00;99.90;;;;;;5058892;28;20017;-87
2023/10/07 01:42:37;;;;;;;9.45;3.70;;;16.00;99.90;;;;;;5037368;28;20121;-87
2023/10/07 01:45:22;;;;;;;11.50;4.15;;;16.10;99.90;;;;;;5024623;28;20017;-86
2023/10/07 01:47:55;;;;;;;3.80;3.45;;;16.00;99.90;;;;;;5029106;28;20033;-88
2023/10/07 01:50:23;;;;;;;5.95;3.47;;;16.00;99.90;;;;;;5051324;28;20009;-86
2023/10/07 01:52:49;;;;;;;3.55;2.58;;;16.00;99.90;;;;;;5022862;28;20648;-87
2023/10/07 01:55:15;;;;;;;4.18;2.90;;;16.00;99.90;;;;;;5024534;28;20032;-87
2023/10/07 01:57:44;;;;;;;3.00;2.65;;;16.00;99.90;;;;;;5026646;28;20021;-86
2023/10/07 02:00:11;;;;;;;3.58;2.17;;;16.00;99.90;;;;;;5029154;28;20021;-86
2023/10/07 02:02:49;;;;;;;2.30;2.10;;;16.00;99.90;;;;;;5049645;28;20373;-85
2023/10/07 02:05:15;;;;;;;2.78;2.13;;;16.00;99.90;;;;;;5049470;28;20048;-85
2023/10/07 02:07:43;;;;;;;1.52;1.38;;;16.00;99.90;;;;;;5024637;28;20024;-85
2023/10/07 02:10:12;;;;;;;1.55;1.45;;;16.00;99.90;;;;;;5031670;28;20021;-83
2023/10/07 02:12:39;;;;;;;2.00;1.65;;;16.00;99.90;;;;;;5029210;28;20680;-84
2023/10/07 02:15:16;;;;;;;1.58;1.48;;;16.00;99.90;;;;;;5031160;28;20082;-84
2023/10/07 02:17:47;;;;;;;1.95;1.00;;;16.00;99.90;;;;;;5049475;28;20021;-84
2023/10/07 02:20:26;;;;;;;2.00;1.42;;;16.00;99.90;;;;;;5031194;28;20090;-84
2023/10/07 02:22:52;;;;;;;1.63;1.10;;;16.00;99.90;;;;;;5029845;28;20013;-85
2023/10/07 02:25:26;;;;;;;1.80;1.00;;;16.00;99.90;;;;;;5031814;28;20044;-86
2023/10/07 02:27:52;;;;;;;1.20;0.95;;;16.00;99.90;;;;;;5031149;28;20019;-85
2023/10/07 02:30:20;;;;;;;0.95;0.80;;;16.00;99.90;;;;;;5031701;28;20025;-86
2023/10/07 02:32:46;;;;;;;1.15;0.63;;;16.00;99.90;;;;;;5031844;28;20593;-86
2023/10/07 02:35:20;;;;;;;1.58;0.75;;;16.00;99.90;;;;;;5031907;28;20040;-86
2023/10/07 02:37:49;;;;;;;1.48;0.90;;;15.90;99.90;;;;;;5029852;28;20104;-86
2023/10/07 02:40:21;;;;;;;1.10;0.80;;;15.90;99.90;;;;;;5032645;28;20496;-86
2023/10/07 02:42:46;;;;;;;1.40;0.70;;;15.80;99.90;;;;;;5033095;28;20108;-86
2023/10/07 02:48:00;;;;;;;1.75;0.80;;;15.80;99.90;;;;;;5045527;28;20486;-86
2023/10/07 02:50:26;;;;;;;2.70;1.13;;;15.80;99.90;;;;;;5047266;28;20017;-86
2023/10/07 02:52:52;;;;;;;1.95;1.40;;;15.70;99.90;;;;;;5032553;28;20389;-86
2023/10/07 02:57:44;;;;;;;2.75;1.20;;;15.60;99.90;;;;;;5050452;28;20106;-86
2023/10/07 03:00:35;;;;;;;4.22;1.73;;;15.60;99.90;;;;;;5032353;28;20028;-83
2023/10/07 03:03:21;;;;;;;4.55;1.58;;;15.50;99.90;;;;;;5032660;28;20055;-85
2023/10/07 03:05:59;;;;;;;6.20;2.22;;;15.40;99.90;;;;;;5048883;28;20124;-85
2023/10/07 03:11:11;;;;;;;4.40;1.73;;;15.40;99.90;;;;;;5047407;28;20032;-83
2023/10/07 03:13:45;;;;;;;4.30;1.90;;;15.30;99.90;;;;;;5031726;28;20025;-83
2023/10/07 03:19:20;;;;;;;4.13;1.13;;;15.30;99.90;;;;;;5048930;28;20029;-85
2023/10/07 03:21:55;;;;;;;3.80;1.25;;;15.20;99.90;;;;;;5046970;28;20523;-86
2023/10/07 03:24:41;;;;;;;6.32;1.52;;;15.20;99.90;;;;;;5054349;28;20396;-86
2023/10/07 03:27:11;;;;;;;4.30;1.35;;;15.20;99.90;;;;;;5036739;28;20025;-85
2023/10/07 03:29:39;;;;;;;3.15;0.95;;;15.20;99.90;;;;;;5035991;28;20025;-85
2023/10/07 03:32:12;;;;;;;4.32;1.20;;;15.20;99.90;;;;;;5050908;28;20389;-85
2023/10/07 03:34:40;;;;;;;2.33;1.33;;;15.20;99.90;;;;;;5053751;28;20025;-85
2023/10/07 03:42:18;;;;;;;4.93;1.58;;;15.10;99.90;;;;;;5051415;28;20147;-86
2023/10/07 03:44:46;;;;;;;3.17;0.80;;;15.10;99.90;;;;;;5034900;28;20040;-87
2023/10/07 03:47:13;;;;;;;3.88;1.00;;;15.10;99.90;;;;;;5034367;28;20013;-86
2023/10/07 03:49:41;;;;;;;3.53;1.23;;;15.10;99.90;;;;;;5030481;28;20028;-86
2023/10/07 03:52:08;;;;;;;5.80;1.30;;;15.10;99.90;;;;;;5035492;28;20381;-86
2023/10/07 03:54:40;;;;;;;5.13;1.40;;;15.00;99.90;;;;;;5034342;28;20036;-86
2023/10/07 03:57:07;;;;;;;3.63;0.98;;;15.00;99.90;;;;;;5032282;28;20107;-86
2023/10/07 03:59:34;;;;;;;7.05;1.88;;;15.00;99.90;;;;;;5034541;28;20032;-87
2023/10/07 04:04:58;;;;;;;7.20;1.65;;;15.00;99.90;;;;;;5046566;28;20519;-86
2023/10/07 04:07:25;;;;;;;9.23;2.38;;;14.90;99.90;;;;;;5035006;28;20029;-87
2023/10/07 04:09:51;;;;;;;10.43;1.88;;;14.80;99.90;;;;;;5031628;28;20382;-86
2023/10/07 04:12:16;;;;;;;5.00;1.70;;;14.80;99.90;;;;;;5032363;28;20021;-85
2023/10/07 04:14:42;;;;;;;8.93;1.65;;;14.80;99.90;;;;;;5035294;28;20021;-87
2023/10/07 04:17:12;;;;;;;4.32;1.60;;;14.70;99.90;;;;;;5050331;28;20619;-87
2023/10/07 04:19:42;;;;;;;3.97;1.38;;;14.70;99.90;;;;;;5034663;28;20608;-86
2023/10/07 04:22:11;;;;;;;8.30;1.50;;;14.70;99.90;;;;;;5034608;28;20420;-86
2023/10/07 04:24:43;;;;;;;8.45;2.53;;;14.70;99.90;;;;;;5033744;28;20087;-86
2023/10/07 04:27:10;;;;;;;6.25;1.77;;;14.70;99.90;;;;;;5050926;28;20021;-87
2023/10/07 04:29:37;;;;;;;8.93;1.85;;;14.70;99.90;;;;;;5032479;28;20025;-87
2023/10/07 04:32:11;;;;;;;9.20;2.28;;;14.60;99.90;;;;;;5048402;28;20071;-87
2023/10/07 04:34:48;;;;;;;10.60;2.28;;;14.60;99.90;;;;;;5034154;28;20021;-86
2023/10/07 04:37:16;;;;;;;10.73;2.58;;;14.60;99.90;;;;;;5030635;28;20087;-86
2023/10/07 04:42:21;;;;;;;9.18;2.25;;;14.50;99.90;;;;;;5050327;28;20457;-87
2023/10/07 04:47:35;;;;;;;12.63;1.90;;;14.50;99.90;;;;;;5055541;28;20048;-87
2023/10/07 04:52:30;;;;;;;6.03;1.63;;;14.50;99.90;;;;;;5055816;28;20021;-87
2023/10/07 04:54:59;;;;;;;4.43;1.30;;;14.40;99.90;;;;;;5034119;28;20107;-87
2023/10/07 04:57:46;;;;;;;9.18;1.75;;;14.40;99.90;;;;;;5032221;28;20042;-87
2023/10/07 05:02:59;;;;;;;9.23;1.35;;;14.40;99.90;;;;;;5052415;28;20162;-87
2023/10/07 05:05:31;;;;;;;4.25;1.05;;;14.40;99.90;;;;;;5033629;28;20025;-87
2023/10/07 05:08:08;;;;;;;10.40;2.05;;;14.40;99.90;;;;;;5032460;28;20038;-87
2023/10/07 05:10:39;;;;;;;8.85;2.22;;;14.40;99.90;;;;;;5037764;28;20036;-87
2023/10/07 05:13:08;;;;;;;18.20;2.03;;;14.50;99.90;;;;;;5031188;28;20040;-87
2023/10/07 05:15:39;;;;;;;8.65;2.72;;;14.40;99.90;;;;;;5033828;28;20456;-88
2023/10/07 05:18:05;;;;;;;13.63;2.17;;;14.40;99.90;;;;;;5033332;28;20017;-87
2023/10/07 05:20:37;;;;;;;6.95;1.73;;;14.40;99.90;;;;;;5049937;28;20091;-86
2023/10/07 05:23:04;;;;;;;5.82;1.95;;;14.40;99.90;;;;;;5051213;28;20020;-86
2023/10/07 05:25:43;;;;;;;6.65;1.65;;;14.40;99.90;;;;;;5033141;28;20033;-86
2023/10/07 05:28:16;;;;;;;5.93;1.65;;;14.40;99.90;;;;;;5031734;28;20021;-87
2023/10/07 05:30:50;;;;;;;4.30;1.95;;;14.40;99.90;;;;;;5030970;28;20014;-87
2023/10/07 05:33:26;;;;;;;8.25;1.92;;;14.40;99.90;;;;;;5029197;28;20136;-86
2023/10/07 05:35:58;;;;;;;4.85;1.67;;;14.40;99.90;;;;;;5052104;28;20568;-88
2023/10/07 05:38:25;;;;;;;5.85;1.55;;;14.40;99.90;;;;;;5034825;28;20056;-86
2023/10/07 05:40:51;;;;;;;8.63;1.98;;;14.40;99.90;;;;;;5031570;28;20028;-86
2023/10/07 05:43:16;;;;;;;5.72;1.52;;;14.40;99.90;;;;;;5033067;28;20025;-89
2023/10/07 05:45:42;;;;;;;5.40;1.60;;;14.40;99.90;;;;;;5034040;28;20095;-86
2023/10/07 05:48:08;;;;;;;4.68;1.60;;;14.40;99.90;;;;;;5052232;28;20029;-85
2023/10/07 05:50:34;;;;;;;6.32;1.73;;;14.30;99.90;;;;;;5032391;28;20032;-86
2023/10/07 05:53:04;;;;;;;9.90;1.80;;;14.30;99.90;;;;;;5034821;28;20044;-87
2023/10/07 05:55:33;;;;;;;7.85;1.25;;;14.40;99.90;;;;;;5052792;28;20017;-87
2023/10/07 05:58:01;;;;;;;9.98;1.50;;;14.40;99.90;;;;;;5034293;28;20215;-86
2023/10/07 06:00:31;;;;;;;6.00;1.58;;;14.40;99.90;;;;;;5053443;28;20032;-86
2023/10/07 06:03:06;;;;;;;5.70;1.50;;;14.40;99.90;;;;;;5033994;28;20040;-86
2023/10/07 06:05:37;;;;;;;5.53;1.00;;;14.40;99.90;;;;;;5052206;28;20100;-87
2023/10/07 06:08:07;;;;;;;4.88;1.33;;;14.40;99.90;;;;;;5048013;28;20127;-86
2023/10/07 06:10:33;;;;;;;8.43;1.88;;;14.40;99.90;;;;;;5030423;28;20021;-86
2023/10/07 06:13:08;;;;;;;8.27;1.90;;;14.30;99.90;;;;;;5029660;28;20370;-85
2023/10/07 06:15:37;;;;;;;9.20;1.77;;;14.30;99.90;;;;;;5033776;28;20059;-85
2023/10/07 06:18:04;;;;;;;7.38;1.77;;;14.40;99.90;;;;;;5031497;28;20013;-85
2023/10/07 06:20:37;;;;;;;4.15;1.52;;;14.40;99.90;;;;;;5032163;28;20033;-86
2023/10/07 06:23:15;;;;;;;7.10;2.03;;;14.40;99.90;;;;;;5035378;28;20360;-86
2023/10/07 06:25:48;;;;;;;6.28;1.92;;;14.40;99.90;;;;;;5045975;28;20028;-86
2023/10/07 06:28:24;;;;;;;6.97;1.33;;;14.40;99.90;;;;;;5033495;28;20028;-86
2023/10/07 06:30:51;;;;;;;;;;;14.40;99.90;;;;;;5022048;28;20032;-87
2023/10/07 06:33:19;;;;;;;3.65;1.10;;;14.40;99.90;;;;;;5026350;28;20005;-85
2023/10/07 06:35:45;;;;;;;2.97;1.10;;;14.40;99.90;;;;;;5050163;28;20096;-86
2023/10/07 06:38:11;;;;;;;4.93;1.38;;;14.40;99.90;;;;;;5030152;28;20864;-86
2023/10/07 06:40:37;;;;;;;7.60;1.50;;;14.40;99.90;;;;;;5027915;28;20017;-86
2023/10/07 06:43:02;;;;;;;4.30;1.58;;;14.40;99.90;;;;;;5046275;28;20039;-86
2023/10/07 06:45:38;;;;;;;5.00;1.45;;;14.40;99.90;;;;;;5047866;28;20484;-88
2023/10/07 06:48:08;;;;;;;4.60;1.10;;;14.40;99.90;;;;;;5044985;28;20428;-86
2023/10/07 06:50:35;;;;;;;5.00;1.08;;;14.40;99.90;;;;;;5047200;28;20028;-87
2023/10/07 06:53:02;;;;;;;5.38;1.42;;;14.40;99.90;;;;;;5030617;28;20071;-86
2023/10/07 06:55:34;;;;;;;7.88;1.60;;;14.40;99.90;;;;;;5028683;28;20046;-87
2023/10/07 06:58:03;;;;;;;11.45;1.83;;;14.40;99.90;;;;;;5024409;28;20120;-87
2023/10/07 07:00:46;;;;;;;3.67;1.23;;;14.40;99.90;;;;;;5031351;28;20029;-86
2023/10/07 07:03:13;;;;;;;5.75;1.45;;;14.40;99.90;;;;;;5037727;28;20018;-86
2023/10/07 07:05:40;;;;;;;6.53;1.60;;;14.40;99.90;;;;;;5027123;28;20479;-86
2023/10/07 07:08:23;;;;;;;4.15;1.05;;;14.40;99.90;;;;;;5030159;28;20030;-86
2023/10/07 07:10:55;;;;;;;5.93;2.03;;;14.40;99.90;;;;;;5028061;28;20020;-86
2023/10/07 07:13:27;;;;;;;6.40;1.75;;;14.40;99.90;;;;;;5051374;28;20021;-86
2023/10/07 07:16:06;;;;;;;4.85;1.17;;;14.40;99.90;;;;;;5049349;28;20521;-86
2023/10/07 07:18:32;;;;;;;3.95;1.20;;;14.40;99.90;;;;;;5029441;28;20025;-86
2023/10/07 07:21:31;;;;;;;3.55;1.23;;;14.40;99.90;;;;;;5030936;28;20024;-87
2023/10/07 07:23:58;;;;;;;3.40;1.25;;;14.40;99.90;;;;;;5027817;28;20026;-86
2023/10/07 07:27:24;;;;;;;2.92;1.17;;;14.40;99.90;;;;;;5031187;28;20021;-86
2023/10/07 07:30:00;;;;;;;5.28;1.20;;;14.40;99.90;;;;;;5050671;28;20025;-87
2023/10/07 07:32:28;;;;;;;2.83;0.68;;;14.50;99.90;;;;;;5049021;28;20094;-87
2023/10/07 07:34:56;;;;;;;1.98;0.90;;;14.40;99.90;;;;;;5030650;28;20115;-87
2023/10/07 07:37:22;;;;;;;3.47;1.08;;;14.40;99.90;;;;;;5045889;28;20083;-87
2023/10/07 07:40:35;;;;;;;3.53;1.42;;;14.40;99.90;;;;;;5033995;28;20378;-86
2023/10/07 07:42:55;;;;;;;5.65;1.38;;;14.40;99.90;;;;;;5047612;28;20028;-87
2023/10/07 07:45:26;;;;;;;3.28;1.02;;;14.40;99.90;;;;;;5032327;28;20652;-86
2023/10/07 07:48:04;;;;;;;2.50;0.95;;;14.50;99.90;;;;;;5031201;28;20021;-86
2023/10/07 07:50:35;;;;;;;3.45;1.10;;;14.50;99.90;;;;;;5031721;28;20025;-86
2023/10/07 07:53:07;;;;;;;6.22;1.13;;;14.40;99.90;;;;;;5048730;28;20017;-85
2023/10/07 07:55:34;;;;;;;2.63;0.98;;;14.40;99.90;;;;;;5031125;28;20468;-86
2023/10/07 07:58:02;;;;;;;3.75;0.82;;;14.40;99.90;;;;;;5032547;28;20120;-85
2023/10/07 08:00:28;;;;;;;3.13;0.70;;;14.30;99.90;;;;;;5030459;28;20017;-86
2023/10/07 08:02:55;;;;;;;3.17;0.90;;;14.30;99.90;;;;;;5031059;28;20120;-85
2023/10/07 08:05:21;;;;;;;3.67;1.33;;;14.40;99.90;;;;;;5024765;28;20021;-85
2023/10/07 08:07:51;;;;;;;5.22;1.08;;;14.40;99.90;;;;;;5033399;28;20108;-85
2023/10/07 08:10:22;;;;;;;1.50;0.70;;;14.40;99.90;;;;;;5035161;28;20433;-86
2023/10/07 08:12:50;;;;;;;1.08;0.55;;;14.40;99.90;;;;;;5034592;28;20049;-86
2023/10/07 08:15:23;;;;;;;7.78;1.05;;;14.40;99.90;;;;;;5035787;28;20112;-84
2023/10/07 08:17:55;;;;;;;3.00;0.77;;;14.40;99.90;;;;;;5031554;28;20029;-84
2023/10/07 08:20:32;;;;;;;2.10;0.93;;;14.40;99.90;;;;;;5036874;28;20066;-85
2023/10/07 08:23:06;;;;;;;4.97;1.08;;;14.40;99.90;;;;;;5035766;28;20053;-83
2023/10/07 08:25:45;;;;;;;5.65;1.38;;;14.40;99.90;;;;;;5055364;28;20009;-84
2023/10/07 08:28:37;;;;;;;2.92;1.08;;;14.30;99.90;;;;;;5030046;28;20021;-84
2023/10/07 08:31:13;;;;;;;1.58;0.68;;;14.30;99.90;;;;;;5051463;28;20087;-85
2023/10/07 08:33:39;;;;;;;2.50;1.00;;;14.40;99.90;;;;;;5049179;28;20040;-84
2023/10/07 08:36:07;;;;;;;4.53;1.55;;;14.40;99.90;;;;;;5049606;28;20027;-84
2023/10/07 08:38:50;;;;;;;3.10;1.10;;;14.50;99.90;;;;;;5050080;28;20485;-84
2023/10/07 08:41:18;;;;;;;3.42;0.88;;;14.50;99.90;;;;;;5049922;28;20018;-84
2023/10/07 08:43:45;;;;;;;1.65;0.68;;;14.50;99.90;;;;;;5033559;28;20475;-84
2023/10/07 08:46:12;;;;;;;1.75;1.05;;;14.50;99.90;;;;;;5046946;28;20025;-82
2023/10/07 08:48:42;;;;;;;3.58;1.05;;;14.40;99.90;;;;;;5034645;28;20025;-83
2023/10/07 08:51:14;;;;;;;3.55;1.10;;;14.40;99.90;;;;;;5050137;28;20049;-83
2023/10/07 08:53:41;;;;;;;2.70;0.82;;;14.30;99.90;;;;;;5034097;28;20028;-82
2023/10/07 08:56:11;;;;;;;0.70;0.70;;;14.20;99.90;;;;;;5032119;28;20021;-82
2023/10/07 08:58:40;;;;;;;3.45;1.15;;;14.20;99.90;;;;;;5034105;28;20074;-83
2023/10/07 09:01:12;;;;;;;2.95;0.90;;;14.00;99.90;;;;;;5035562;28;20021;-83
2023/10/07 09:03:40;;;;;;;3.25;0.75;;;14.10;99.90;;;;;;5050457;28;20010;-83
2023/10/07 09:06:09;;;;;;;3.08;1.35;;;14.10;99.90;;;;;;5033157;28;20119;-83
2023/10/07 09:08:34;;;;;;;5.00;1.33;;;14.10;99.90;;;;;;5033524;28;20585;-83
2023/10/07 09:11:06;;;;;;;2.40;0.80;;;14.20;99.90;;;;;;5033422;28;20028;-84
2023/10/07 09:13:33;;;;;;;2.42;0.70;;;14.20;99.90;;;;;;5033669;28;20052;-83
2023/10/07 09:16:06;;;;;;;1.98;0.80;;;14.10;99.90;;;;;;5033096;28;20120;-83
2023/10/07 09:18:42;;;;;;;2.97;0.57;;;14.00;99.90;;;;;;5033844;28;20029;-83
2023/10/07 09:21:19;;;;;;;2.83;0.77;;;14.00;99.90;;;;;;5034880;28;20009;-84
2023/10/07 09:23:47;;;;;;;3.15;0.77;;;14.00;99.90;;;;;;5035737;28;20036;-84
2023/10/07 09:26:21;;;;;;;4.68;1.20;;;14.10;99.90;;;;;;5051174;28;20017;-84
2023/10/07 09:28:58;;;;;;;0.90;0.65;;;14.10;99.90;;;;;;5030231;28;20031;-83
2023/10/07 09:31:27;;;;;;;2.65;0.77;;;14.10;99.90;;;;;;5031811;28;20027;-84
2023/10/07 09:33:55;;;;;;;3.13;0.60;;;14.20;99.90;;;;;;5033099;28;20448;-84
2023/10/07 09:41:38;;;;;;;1.85;0.55;;;14.10;99.90;;;;;;5053517;28;20017;-84
2023/10/07 09:44:26;;;;;;;1.88;0.60;;;14.10;99.90;;;;;;5049662;28;20145;-85
2023/10/07 09:46:52;;;;;;;0.45;0.28;;;14.20;99.90;;;;;;5048413;28;20035;-84
2023/10/07 09:49:23;;;;;;;1.55;0.60;;;14.20;99.90;;;;;;5032736;28;20511;-84
2023/10/07 09:52:02;;;;;;;2.05;0.50;;;14.20;99.90;;;;;;5049548;28;20052;-85
2023/10/07 09:54:47;;;;;;;3.58;0.80;;;14.30;99.90;;;;;;5031384;28;20025;-84
2023/10/07 09:57:30;;;;;;;2.07;0.37;;;14.30;99.90;;;;;;5033111;28;20025;-85
2023/10/07 10:03:30;;;;;;;2.97;0.80;;;14.30;99.90;;;;;;5049422;28;20040;-84
2023/10/07 10:06:26;;;;;;;1.25;0.43;;;14.30;99.90;;;;;;5033059;28;20017;-85
2023/10/07 10:09:08;;;;;;;1.23;0.45;;;14.40;99.90;;;;;;5054953;28;20040;-84
2023/10/07 10:16:48;;;;;;;1.20;0.67;;;14.30;99.90;;;;;;5051002;28;20449;-84
2023/10/07 10:19:28;;;;;;;2.42;0.60;;;14.30;99.90;;;;;;5032814;28;20397;-83
2023/10/07 10:21:54;;;;;;;1.90;0.70;;;14.20;99.90;;;;;;5050618;28;20020;-84
2023/10/07 10:24:28;;;;;;;1.77;0.40;;;14.10;99.90;;;;;;5033348;28;20009;-84
2023/10/07 10:27:04;;;;;;;2.63;0.73;;;14.00;99.90;;;;;;5029395;28;20029;-84
2023/10/07 10:29:33;;;;;;;0.88;0.50;;;14.00;99.90;;;;;;5030585;28;20036;-84
2023/10/07 10:32:03;;;;;;;1.67;0.65;;;14.00;99.90;;;;;;5048472;28;20428;-83
2023/10/07 10:34:29;;;;;;;1.50;0.82;;;14.00;99.90;;;;;;5031319;28;20509;-84
2023/10/07 10:36:56;;;;;;;2.63;1.10;;;14.00;99.90;;;;;;5030913;28;20104;-85
2023/10/07 10:39:25;;;;;;;0.80;0.70;;;14.00;99.90;;;;;;5034916;28;20032;-83
2023/10/07 10:41:55;;;;;;;1.35;0.80;;;14.00;99.90;;;;;;5034132;28;20013;-84
2023/10/07 10:44:21;;;;;;;3.38;0.82;;;14.10;99.90;;;;;;5049884;28;20017;-84
2023/10/07 10:46:49;;;;;;;1.38;0.80;;;14.10;99.90;;;;;;5045396;28;20436;-85
2023/10/07 10:49:16;;;;;;;1.98;0.60;;;14.10;99.90;;;;;;5050863;28;20025;-84
2023/10/07 10:51:50;;;;;;;1.27;0.60;;;14.10;99.90;;;;;;5033222;28;20082;-85
2023/10/07 10:54:18;;;;;;;0.60;0.35;;;14.10;99.90;;;;;;5052715;28;20017;-85
2023/10/07 10:56:48;;;;;;;0.45;0.30;;;14.20;99.90;;;;;;5033061;28;20439;-85
2023/10/07 10:59:16;;;;;;;2.75;0.50;;;14.20;99.90;;;;;;5048714;28;20024;-84
2023/10/07 11:01:45;;;;;;;3.03;0.40;;;14.20;99.90;;;;;;5034133;28;20021;-84
2023/10/07 11:04:15;;;;;;;0.28;0.20;;;14.20;99.90;;;;;;5029908;28;20020;-84
2023/10/07 11:06:40;;;;;;;0.77;0.50;;;14.20;99.90;;;;;;5033917;28;20048;-85
2023/10/07 11:09:06;;;;;;;1.23;0.40;;;14.20;99.90;;;;;;5031405;28;20033;-85
2023/10/07 11:11:35;;;;;;;0.70;0.50;;;14.20;99.90;;;;;;5051435;28;20032;-84
2023/10/07 11:14:07;;;;;;;2.05;0.57;;;14.30;99.90;;;;;;5044544;28;20138;-85
2023/10/07 11:16:43;;;;;;;0.50;0.30;;;14.30;99.90;;;;;;5031509;28;20017;-84
2023/10/07 11:19:12;;;;;;;0.95;0.45;;;14.20;99.90;;;;;;5032696;28;20033;-85
2023/10/07 11:21:41;;;;;;;0.63;0.30;;;14.30;99.90;;;;;;5033670;28;20017;-85
2023/10/07 11:24:07;;;;;;;1.27;0.30;;;14.30;99.90;;;;;;5047260;28;20151;-85
2023/10/07 11:26:33;;;;;;;1.23;0.60;;;14.30;99.90;;;;;;5030844;28;20109;-84
2023/10/07 11:29:10;;;;;;;0.40;0.25;;;14.30;99.90;;;;;;5049975;28;20048;-84
2023/10/07 11:31:37;;;;;;;0.55;0.45;;;14.20;99.90;;;;;;5051920;28;20025;-85
2023/10/07 11:34:04;;;;;;;1.27;0.70;;;14.10;99.90;;;;;;5049513;28;20028;-85
2023/10/07 11:36:40;;;;;;;0.73;0.38;;;14.10;99.90;;;;;;5032156;28;20017;-85
2023/10/07 11:39:08;;;;;;;;;;;14.00;99.90;;;;;;5035781;28;20021;-85
2023/10/07 11:41:33;;;;;;;1.50;0.40;;;14.00;99.90;;;;;;5052067;28;19992;-85
2023/10/07 11:43:59;;;;;;;1.17;0.50;;;14.00;99.90;;;;;;5038399;28;20509;-84
2023/10/07 11:46:25;;;;;;;1.08;0.50;;;13.90;99.90;;;;;;5040108;28;20670;-85
2023/10/07 11:48:50;;;;;;;1.55;0.90;;;13.90;99.90;;;;;;5059426;28;20443;-85
2023/10/07 11:51:16;;;;;;;0.30;0.30;;;13.90;99.90;;;;;;5053966;28;20067;-84
2023/10/07 11:53:41;;;;;;;0.77;0.30;;;13.90;99.90;;;;;;5035087;28;20025;-84
2023/10/07 11:56:11;;;;;;;0.73;0.30;;;14.00;99.90;;;;;;5037975;28;20025;-84
2023/10/07 11:58:37;;;;;;;0.98;0.50;;;14.00;99.90;;;;;;5056765;28;20013;-85
2023/10/07 12:01:03;;;;;;;0.50;0.40;;;14.00;99.90;;;;;;5055384;28;20104;-85
2023/10/07 12:03:30;;;;;;;1.75;0.40;;;14.10;99.90;;;;;;5037821;28;20421;-85
2023/10/07 12:05:57;;;;;;;0.45;0.20;;;14.10;99.90;;;;;;5037211;28;20036;-84
2023/10/07 12:08:23;;;;;;;0.82;0.38;;;14.20;99.90;;;;;;5034015;28;20031;-85
2023/10/07 12:10:50;;;;;;;1.83;0.32;;;14.10;99.90;;;;;;5037617;28;20112;-85
2023/10/07 12:13:15;;;;;;;0.30;0.30;;;14.10;99.90;;;;;;5035987;28;20036;-85
2023/10/07 12:15:42;;;;;;;0.75;0.50;;;14.10;99.90;;;;;;5036843;28;20017;-83
2023/10/07 12:18:09;;;;;;;0.30;0.30;;;14.00;99.90;;;;;;5036514;28;20040;-84
2023/10/07 12:20:34;;;;;;;1.20;0.57;;;13.90;99.90;;;;;;5054620;28;20036;-84
2023/10/07 12:23:00;;;;;;;0.52;0.40;;;13.90;99.90;;;;;;5035442;28;20017;-85
2023/10/07 12:25:26;;;;;;;0.65;0.52;;;13.80;99.90;;;;;;5055038;28;20028;-85
2023/10/07 12:27:51;;;;;;;0.30;0.30;;;13.70;99.90;;;;;;5055318;28;20393;-85
2023/10/07 13:04:54;;;;;;;;;;;13.60;99.90;;;;;;4954997;29;20038;-85
2023/10/07 13:07:20;;;;;;;0.85;0.28;;;13.50;99.90;;;;;;4950501;28;19922;-85
2023/10/07 13:09:46;;;;;;;0.85;0.10;;;13.50;99.90;;;;;;4935474;29;20087;-84
2023/10/07 13:12:13;;;;;;;0.38;0.20;;;13.40;99.90;;;;;;5034199;28;20018;-85
2023/10/07 13:14:41;;;;;;;3.33;0.30;;;13.40;99.90;;;;;;5035923;28;20523;-85
2023/10/07 13:17:07;;;;;;;0.20;0.20;;;13.40;99.90;;;;;;5053637;28;20065;-85
2023/10/07 13:19:36;;;;;;;0.30;0.30;;;13.30;99.90;;;;;;5034034;28;20032;-85
2023/10/07 13:22:05;;;;;;;0.35;0.20;;;13.30;99.90;;;;;;5035436;28;20025;-84
2023/10/07 13:24:31;;;;;;;0.25;0.22;;;13.30;99.90;;;;;;5050494;28;20382;-85
2023/10/07 13:26:57;;;;;;;0.40;0.30;;;13.30;99.90;;;;;;5036222;28;20036;-85
2023/10/07 13:29:23;;;;;;;1.58;0.30;;;13.30;99.90;;;;;;5041960;28;20021;-85
2023/10/07 13:31:49;;;;;;;0.43;0.35;;;13.30;99.90;;;;;;5051348;28;20479;-85
2023/10/07 13:34:17;;;;;;;1.45;0.35;;;13.30;99.90;;;;;;5049921;28;20049;-85
2023/10/07 13:36:43;;;;;;;2.17;0.57;;;13.30;99.90;;;;;;5034770;28;20070;-85
2023/10/07 13:39:15;;;;;;;0.80;0.40;;;13.30;99.90;;;;;;5045180;28;20032;-86
2023/10/07 13:41:44;;;;;;;0.63;0.35;;;13.30;99.90;;;;;;5054114;28;20005;-85
2023/10/07 13:44:12;;;;;;;1.23;0.50;;;13.30;99.90;;;;;;5048924;28;20025;-85
2023/10/07 13:46:37;;;;;;;2.33;0.70;;;13.30;99.90;;;;;;5035377;28;20099;-86
2023/10/07 13:49:08;;;;;;;0.68;0.60;;;13.30;99.90;;;;;;5032054;28;20031;-83
2023/10/07 13:51:45;;;;;;;1.17;0.45;;;13.40;99.90;;;;;;5052679;28;20028;-85
2023/10/07 13:56:55;;;;;;;0.65;0.40;;;13.40;99.90;;;;;;5049990;28;20028;-85
2023/10/07 13:59:24;;;;;;;0.40;0.40;;;13.40;99.90;;;;;;5033489;28;20029;-85
2023/10/07 14:01:55;;;;;;;0.68;0.50;;;13.40;99.90;;;;;;5033928;28;20104;-85
2023/10/07 14:04:25;;;;;;;0.55;0.30;;;13.50;99.90;;;;;;5033782;28;20029;-85
2023/10/07 14:07:00;;;;;;;0.30;0.30;;;13.50;99.90;;;;;;5037350;28;20049;-85
2023/10/07 14:09:26;;;;;;;1.80;0.70;;;13.40;99.90;;;;;;5036422;28;20334;-84
2023/10/07 14:11:54;;;;;;;3.20;0.50;;;13.40;99.90;;;;;;5056909;28;20025;-85
2023/10/07 14:14:20;;;;;;;1.17;0.47;;;13.30;99.90;;;;;;5057577;28;20033;-85
2023/10/07 14:16:46;;;;;;;3.67;0.68;;;13.10;99.90;;;;;;5056813;28;20051;-85
2023/10/07 14:19:13;;;;;;;1.40;0.80;;;13.10;99.90;;;;;;5038083;28;20476;-85
2023/10/07 14:21:39;;;;;;;2.60;0.80;;;13.00;99.90;;;;;;5037557;28;20100;-84
2023/10/07 14:24:05;;;;;;;4.88;0.93;;;13.00;99.90;;;;;;5032225;28;20059;-84
2023/10/07 14:26:35;;;;;;;0.88;0.60;;;12.90;99.90;;;;;;5035010;28;20349;-84
2023/10/07 14:29:02;;;;;;;1.35;0.85;;;12.90;99.90;;;;;;5037296;28;20033;-84
2023/10/07 14:31:28;;;;;;;2.22;0.55;;;12.90;99.90;;;;;;5053347;28;20501;-85